createdAt,value
2018-07-26T00:00:00.773Z,9.8
2018-07-26T00:05:00.705Z,9.5
2018-07-26T00:10:00.736Z,9.8
2018-07-26T00:15:00.677Z,10.0
2018-07-26T00:20:00.829Z,10.2
2018-07-26T00:25:00.726Z,10.3
2018-07-26T00:30:00.705Z,10.2
2018-07-26T00:35:00.710Z,10.2
2018-07-26T00:40:00.772Z,9.8
2018-07-26T00:45:00.713Z,10.0
2018-07-26T00:50:00.710Z,10.4
2018-07-26T00:55:00.716Z,11.2
2018-07-26T01:00:00.810Z,12.1
2018-07-26T01:05:00.713Z,13.1
2018-07-26T01:10:00.756Z,13.7
2018-07-26T01:15:00.743Z,14.2
2018-07-26T01:20:00.768Z,14.5
2018-07-26T01:30:00.856Z,16.3
2018-07-26T01:35:00.706Z,17.4
2018-07-26T01:40:00.763Z,18.4
2018-07-26T01:45:00.711Z,19.0
2018-07-26T01:50:00.703Z,19.3
2018-07-26T01:55:00.770Z,19.5
2018-07-26T02:00:00.842Z,19.8
2018-07-26T02:05:00.771Z,20.1
2018-07-26T02:10:00.838Z,21.0
2018-07-26T02:15:00.764Z,21.4
2018-07-26T02:20:00.772Z,21.8
2018-07-26T02:25:00.770Z,21.8
2018-07-26T02:30:00.781Z,22.1
2018-07-26T02:35:00.771Z,22.3
2018-07-26T02:40:00.797Z,22.7
2018-07-26T02:45:00.787Z,22.6
2018-07-26T02:50:00.809Z,22.7
2018-07-26T02:55:00.798Z,22.5
2018-07-26T03:00:00.859Z,22.2
2018-07-26T03:05:00.790Z,22.2
2018-07-26T03:10:00.884Z,22.2
2018-07-26T03:15:00.769Z,22.4
2018-07-26T03:20:00.769Z,22.5
2018-07-26T03:25:00.762Z,22.9
2018-07-26T03:30:00.825Z,22.9
2018-07-26T03:35:00.787Z,23.2
2018-07-26T03:40:00.899Z,23.5
2018-07-26T03:45:00.769Z,23.8
2018-07-26T03:50:00.843Z,24.1
2018-07-26T03:55:00.772Z,24.5
2018-07-26T04:00:00.838Z,25.1
2018-07-26T04:05:00.840Z,25.2
2018-07-26T04:10:00.913Z,25.5
2018-07-26T04:15:00.908Z,25.4
2018-07-26T04:20:01.429Z,25.3
2018-07-26T04:25:00.786Z,24.8
2018-07-26T04:30:00.978Z,24.7
2018-07-26T04:35:00.792Z,24.6
2018-07-26T04:40:00.985Z,24.2
2018-07-26T04:45:00.796Z,23.8
2018-07-26T04:50:00.860Z,23.8
2018-07-26T04:55:00.801Z,23.3
2018-07-26T05:00:00.826Z,23.1
2018-07-26T05:05:00.804Z,22.8
2018-07-26T05:10:00.958Z,22.9
2018-07-26T05:15:00.797Z,22.6
2018-07-26T05:20:00.869Z,22.7
2018-07-26T05:25:00.810Z,22.5
2018-07-26T05:30:00.869Z,22.7
2018-07-26T05:35:00.809Z,22.8
2018-07-26T05:40:00.810Z,22.8
2018-07-26T05:45:00.841Z,22.8
2018-07-26T05:50:00.920Z,22.4
2018-07-26T05:55:00.828Z,22.0
2018-07-26T06:00:01.112Z,20.7
2018-07-26T06:05:00.821Z,20.1
2018-07-26T06:10:00.895Z,18.7
2018-07-26T06:15:00.844Z,17.9
2018-07-26T06:20:00.958Z,16.9
2018-07-26T06:25:00.842Z,16.6
2018-07-26T06:30:00.930Z,15.8
2018-07-26T06:35:00.838Z,15.6
2018-07-26T06:40:00.838Z,15.0
2018-07-26T06:45:00.905Z,14.4
2018-07-26T06:50:00.927Z,13.4
2018-07-26T06:55:00.870Z,12.7
2018-07-26T07:00:00.857Z,11.9
2018-07-26T07:05:00.872Z,11.3
2018-07-26T07:10:01.239Z,11.1
2018-07-26T07:15:00.872Z,11.0
2018-07-26T07:20:00.886Z,10.8
2018-07-26T07:25:00.883Z,10.6
2018-07-26T07:30:00.888Z,10.4
2018-07-26T07:35:00.888Z,10.2
2018-07-26T07:40:00.911Z,10.0
2018-07-26T07:45:00.894Z,9.9
2018-07-26T08:00:00.866Z,10.2
2018-07-26T08:05:00.892Z,10.8
2018-07-26T08:10:00.872Z,10.7
2018-07-26T08:15:00.873Z,10.7
2018-07-26T08:25:00.874Z,10.9
2018-07-26T08:30:00.877Z,10.4
2018-07-26T08:35:01.071Z,10.8
2018-07-26T08:40:00.868Z,10.7
2018-07-26T08:45:00.890Z,10.7
2018-07-26T08:50:00.911Z,11.2
2018-07-26T08:55:00.894Z,11.7
2018-07-26T09:00:00.931Z,11.8
2018-07-26T09:05:00.895Z,12.7
2018-07-26T09:10:01.220Z,12.9
2018-07-26T09:15:00.893Z,13.1
2018-07-26T09:20:00.951Z,12.8
2018-07-26T09:25:00.941Z,12.6
2018-07-26T09:30:00.929Z,12.2
2018-07-26T09:35:00.923Z,12.0
2018-07-26T09:40:00.998Z,11.5
2018-07-26T09:45:00.932Z,11.7
2018-07-26T09:55:01.186Z,11.5
2018-07-26T10:00:01.038Z,11.8
2018-07-26T10:05:00.939Z,11.8
2018-07-26T10:10:00.983Z,12.0
2018-07-26T10:15:00.980Z,11.7
2018-07-26T10:20:01.242Z,11.9
2018-07-26T10:30:01.074Z,12.0
2018-07-26T10:35:00.946Z,12.0
2018-07-26T10:40:01.021Z,12.2
2018-07-26T10:45:00.955Z,12.0
2018-07-26T10:50:01.339Z,12.0
2018-07-26T10:55:00.961Z,11.6
2018-07-26T11:00:01.090Z,11.0
2018-07-26T11:05:00.968Z,11.1
2018-07-26T11:10:01.029Z,10.9
2018-07-26T11:15:01.135Z,11.1
2018-07-26T11:20:01.031Z,11.4
2018-07-26T11:25:00.969Z,12.6
2018-07-26T11:30:01.425Z,12.5
2018-07-26T11:35:00.990Z,13.1
2018-07-26T11:40:00.972Z,13.3
2018-07-26T11:45:00.997Z,13.7
2018-07-26T11:50:01.204Z,13.0
2018-07-26T11:55:00.937Z,13.2
2018-07-26T12:00:00.951Z,13.1
2018-07-26T12:05:00.943Z,12.7
2018-07-26T12:10:00.991Z,13.0
2018-07-26T12:15:00.949Z,12.6
2018-07-26T12:20:01.023Z,12.2
2018-07-26T12:25:01.287Z,12.4
2018-07-26T12:30:01.019Z,12.0
2018-07-26T12:40:00.959Z,12.5
2018-07-26T12:45:00.966Z,13.0
2018-07-26T12:50:01.093Z,13.1
2018-07-26T12:55:00.993Z,13.8
2018-07-26T13:00:01.037Z,13.8
2018-07-26T13:05:00.971Z,13.6
2018-07-26T13:15:01.047Z,13.0
2018-07-26T13:20:00.978Z,12.9
2018-07-26T13:25:00.981Z,12.4
2018-07-26T13:30:00.985Z,12.2
2018-07-26T13:35:00.984Z,12.2
2018-07-26T13:40:01.329Z,12.1
2018-07-26T13:45:00.989Z,11.6
2018-07-26T13:50:01.119Z,11.2
2018-07-26T13:55:00.996Z,10.5
2018-07-26T14:00:00.992Z,10.4
2018-07-26T14:05:01.011Z,10.1
2018-07-26T14:10:01.126Z,10.2
2018-07-26T14:15:01.066Z,10.4
2018-07-26T14:20:01.127Z,10.8
2018-07-26T14:25:00.998Z,10.5
2018-07-26T14:30:01.069Z,10.6
2018-07-26T14:35:01.004Z,10.4
2018-07-26T14:40:01.165Z,10.6
2018-07-26T14:45:01.460Z,10.7
2018-07-26T14:50:01.205Z,10.9
2018-07-26T14:55:01.044Z,10.6
2018-07-26T15:00:01.046Z,10.9
2018-07-26T15:10:01.069Z,10.6
2018-07-26T15:15:01.063Z,10.8
2018-07-26T15:20:01.130Z,10.9
2018-07-26T15:25:01.071Z,10.5
2018-07-26T15:30:01.140Z,10.5
2018-07-26T15:35:01.075Z,10.7
2018-07-26T15:40:01.128Z,10.5
2018-07-26T15:45:01.068Z,10.6
2018-07-26T15:50:01.197Z,10.7
2018-07-26T16:00:01.159Z,10.8
2018-07-26T16:10:06.124Z,11.0
2018-07-26T16:15:01.051Z,11.2
2018-07-26T16:20:01.120Z,10.8
2018-07-26T16:25:01.073Z,10.7
2018-07-26T16:30:01.154Z,11.2
2018-07-26T16:35:01.067Z,11.2
2018-07-26T16:40:01.548Z,11.2
2018-07-26T16:45:01.068Z,11.4
2018-07-26T16:50:01.131Z,11.1
2018-07-26T16:55:01.065Z,11.0
2018-07-26T17:00:01.202Z,10.8
2018-07-26T17:05:01.072Z,10.7
2018-07-26T17:10:01.166Z,10.7
2018-07-26T17:15:01.098Z,10.7
2018-07-26T17:20:01.143Z,10.7
2018-07-26T17:25:01.104Z,10.2
2018-07-26T17:30:01.235Z,10.0
2018-07-26T17:40:01.302Z,10.0
2018-07-26T17:45:01.411Z,9.6
2018-07-26T17:50:01.176Z,10.0
2018-07-26T17:55:01.112Z,10.3
2018-07-26T18:00:01.541Z,10.7
2018-07-26T18:05:01.426Z,10.6
2018-07-26T18:10:01.088Z,10.8
2018-07-26T18:15:01.131Z,10.7
2018-07-26T18:20:01.127Z,10.4
2018-07-26T18:30:01.144Z,10.4
2018-07-26T18:35:06.124Z,10.4
2018-07-26T18:40:01.278Z,10.4
2018-07-26T18:45:06.121Z,10.6
2018-07-26T18:50:06.128Z,10.6
2018-07-26T18:55:01.232Z,10.6
2018-07-26T19:00:01.216Z,10.4
2018-07-26T19:05:01.156Z,10.6
2018-07-26T19:10:06.262Z,10.3
2018-07-26T19:15:01.126Z,10.6
2018-07-26T19:20:01.182Z,10.8
2018-07-26T19:25:01.118Z,11.6
2018-07-26T19:30:02.156Z,11.6
2018-07-26T19:35:01.131Z,12.2
2018-07-26T19:45:01.344Z,12.8
2018-07-26T19:50:01.199Z,12.7
2018-07-26T19:55:01.136Z,13.2
2018-07-26T20:00:01.227Z,13.8
2018-07-26T20:05:01.144Z,14.2
2018-07-26T20:10:01.458Z,14.5
2018-07-26T20:15:01.200Z,15.4
2018-07-26T20:20:01.268Z,16.2
2018-07-26T20:25:01.180Z,16.8
2018-07-26T20:30:01.187Z,17.5
2018-07-26T20:35:01.185Z,18.4
2018-07-26T20:40:01.302Z,18.8
2018-07-26T20:45:01.182Z,19.1
2018-07-26T20:50:01.258Z,19.2
2018-07-26T20:55:01.176Z,19.2
2018-07-26T21:00:01.250Z,19.4
2018-07-26T21:05:01.185Z,20.0
2018-07-26T21:10:01.218Z,20.2
2018-07-26T21:15:01.160Z,20.7
2018-07-26T21:20:01.289Z,21.1
2018-07-26T21:25:01.168Z,21.0
2018-07-26T21:30:01.240Z,21.0
2018-07-26T21:35:01.163Z,21.2
2018-07-26T21:40:01.226Z,21.3
2018-07-26T21:45:01.163Z,21.3
2018-07-26T21:50:01.225Z,21.4
2018-07-26T21:55:01.174Z,21.1
2018-07-26T22:00:01.173Z,21.0
2018-07-26T22:05:01.193Z,20.8
2018-07-26T22:10:01.243Z,20.8
2018-07-26T22:15:01.325Z,20.8
2018-07-26T22:20:01.253Z,20.6
2018-07-26T22:25:01.183Z,20.1
2018-07-26T22:30:01.354Z,19.9
2018-07-26T22:35:01.187Z,19.7
2018-07-26T22:40:01.260Z,19.7
2018-07-26T22:45:06.193Z,19.4
2018-07-26T22:50:01.266Z,19.8
2018-07-26T22:55:01.190Z,19.9
2018-07-26T23:00:01.317Z,20.0
2018-07-26T23:05:01.201Z,20.4
2018-07-26T23:10:01.266Z,21.1
2018-07-26T23:15:01.201Z,21.3
2018-07-26T23:20:01.268Z,21.2
2018-07-26T23:25:01.231Z,20.9
2018-07-26T23:30:01.354Z,20.7
2018-07-26T23:40:01.337Z,20.5
2018-07-26T23:45:06.214Z,20.6
2018-07-26T23:50:01.299Z,21.0
2018-07-26T23:55:01.212Z,21.0
